sensor_id;sensor_type;location;lat;lon;timestamp;P1;durP1;ratioP1;P2;durP2;ratioP2
18711;SDS011;9485;49.386;8.674;2022-12-16T00:05:11;20.80;;;13.00;;
18711;SDS011;9485;49.386;8.674;2022-12-16T00:10:31;20.80;;;12.67;;
18711;SDS011;9485;49.386;8.674;2022-12-16T00:16:11;20.07;;;12.37;;
18711;SDS011;9485;49.386;8.674;2022-12-16T00:21:35;18.30;;;11.93;;
18711;SDS011;9485;49.386;8.674;2022-12-16T00:26:55;19.80;;;12.20;;
18711;SDS011;9485;49.386;8.674;2022-12-16T00:32:16;20.43;;;12.00;;
18711;SDS011;9485;49.386;8.674;2022-12-16T00:37:38;19.33;;;11.23;;
18711;SDS011;9485;49.386;8.674;2022-12-16T00:42:59;18.73;;;12.37;;
18711;SDS011;9485;49.386;8.674;2022-12-16T00:48:20;17.87;;;11.97;;
18711;SDS011;9485;49.386;8.674;2022-12-16T00:53:43;21.97;;;13.17;;
18711;SDS011;9485;49.386;8.674;2022-12-16T00:59:03;16.70;;;10.83;;
18711;SDS011;9485;49.386;8.674;2022-12-16T01:04:24;18.73;;;11.23;;
18711;SDS011;9485;49.386;8.674;2022-12-16T01:09:46;15.77;;;11.20;;
18711;SDS011;9485;49.386;8.674;2022-12-16T01:15:07;18.23;;;11.50;;
18711;SDS011;9485;49.386;8.674;2022-12-16T01:20:32;19.67;;;12.10;;
18711;SDS011;9485;49.386;8.674;2022-12-16T01:25:54;15.97;;;10.07;;
18711;SDS011;9485;49.386;8.674;2022-12-16T01:31:18;17.87;;;10.87;;
18711;SDS011;9485;49.386;8.674;2022-12-16T01:36:40;17.33;;;10.87;;
18711;SDS011;9485;49.386;8.674;2022-12-16T01:42:02;19.00;;;10.83;;
18711;SDS011;9485;49.386;8.674;2022-12-16T01:47:24;16.87;;;10.97;;
18711;SDS011;9485;49.386;8.674;2022-12-16T01:52:52;19.63;;;10.47;;
18711;SDS011;9485;49.386;8.674;2022-12-16T01:58:20;14.27;;;9.67;;
18711;SDS011;9485;49.386;8.674;2022-12-16T02:03:45;16.63;;;9.77;;
18711;SDS011;9485;49.386;8.674;2022-12-16T02:09:08;15.93;;;9.67;;
18711;SDS011;9485;49.386;8.674;2022-12-16T02:14:38;15.47;;;9.80;;
18711;SDS011;9485;49.386;8.674;2022-12-16T02:20:36;17.37;;;9.63;;
18711;SDS011;9485;49.386;8.674;2022-12-16T02:26:33;14.00;;;9.27;;
18711;SDS011;9485;49.386;8.674;2022-12-16T02:32:19;18.30;;;10.90;;
18711;SDS011;9485;49.386;8.674;2022-12-16T02:37:50;16.97;;;9.70;;
18711;SDS011;9485;49.386;8.674;2022-12-16T02:43:28;19.23;;;10.73;;
18711;SDS011;9485;49.386;8.674;2022-12-16T02:55:08;11.50;;;8.63;;
18711;SDS011;9485;49.386;8.674;2022-12-16T03:00:32;14.27;;;8.30;;
18711;SDS011;9485;49.386;8.674;2022-12-16T03:06:07;12.13;;;7.70;;
18711;SDS011;9485;49.386;8.674;2022-12-16T03:11:32;13.77;;;8.60;;
18711;SDS011;9485;49.386;8.674;2022-12-16T03:16:55;11.47;;;8.17;;
18711;SDS011;9485;49.386;8.674;2022-12-16T03:22:19;14.43;;;8.40;;
18711;SDS011;9485;49.386;8.674;2022-12-16T03:27:45;15.50;;;9.63;;
18711;SDS011;9485;49.386;8.674;2022-12-16T03:33:17;15.40;;;9.37;;
18711;SDS011;9485;49.386;8.674;2022-12-16T03:38:46;16.97;;;8.87;;
18711;SDS011;9485;49.386;8.674;2022-12-16T03:44:09;14.57;;;8.60;;
18711;SDS011;9485;49.386;8.674;2022-12-16T03:49:30;14.17;;;8.77;;
18711;SDS011;9485;49.386;8.674;2022-12-16T03:54:52;14.53;;;8.73;;
18711;SDS011;9485;49.386;8.674;2022-12-16T04:00:13;16.17;;;8.77;;
18711;SDS011;9485;49.386;8.674;2022-12-16T04:05:34;18.40;;;9.13;;
18711;SDS011;9485;49.386;8.674;2022-12-16T04:10:56;17.07;;;9.40;;
18711;SDS011;9485;49.386;8.674;2022-12-16T04:16:34;15.37;;;9.17;;
18711;SDS011;9485;49.386;8.674;2022-12-16T04:22:14;15.27;;;8.50;;
18711;SDS011;9485;49.386;8.674;2022-12-16T04:27:58;15.33;;;8.47;;
18711;SDS011;9485;49.386;8.674;2022-12-16T04:33:19;11.27;;;7.57;;
18711;SDS011;9485;49.386;8.674;2022-12-16T04:39:00;14.00;;;9.03;;
18711;SDS011;9485;49.386;8.674;2022-12-16T04:44:39;14.47;;;9.03;;
18711;SDS011;9485;49.386;8.674;2022-12-16T04:50:18;15.93;;;9.37;;
18711;SDS011;9485;49.386;8.674;2022-12-16T04:55:56;17.60;;;10.17;;
18711;SDS011;9485;49.386;8.674;2022-12-16T05:01:36;16.50;;;9.40;;
18711;SDS011;9485;49.386;8.674;2022-12-16T05:07:15;15.40;;;9.07;;
18711;SDS011;9485;49.386;8.674;2022-12-16T05:12:54;11.83;;;8.23;;
18711;SDS011;9485;49.386;8.674;2022-12-16T05:18:34;18.23;;;9.67;;
18711;SDS011;9485;49.386;8.674;2022-12-16T05:24:12;16.40;;;9.63;;
18711;SDS011;9485;49.386;8.674;2022-12-16T05:29:51;17.80;;;9.23;;
18711;SDS011;9485;49.386;8.674;2022-12-16T05:35:30;16.53;;;8.73;;
18711;SDS011;9485;49.386;8.674;2022-12-16T05:41:09;12.93;;;8.37;;
18711;SDS011;9485;49.386;8.674;2022-12-16T05:46:47;13.73;;;8.67;;
18711;SDS011;9485;49.386;8.674;2022-12-16T05:52:27;12.27;;;8.60;;
18711;SDS011;9485;49.386;8.674;2022-12-16T05:58:05;14.87;;;8.00;;
18711;SDS011;9485;49.386;8.674;2022-12-16T06:03:44;13.07;;;8.07;;
18711;SDS011;9485;49.386;8.674;2022-12-16T06:09:24;14.90;;;8.47;;
18711;SDS011;9485;49.386;8.674;2022-12-16T06:15:03;17.07;;;9.53;;
18711;SDS011;9485;49.386;8.674;2022-12-16T06:20:42;12.57;;;8.23;;
18711;SDS011;9485;49.386;8.674;2022-12-16T06:26:21;14.50;;;8.87;;
18711;SDS011;9485;49.386;8.674;2022-12-16T06:32:00;16.07;;;9.30;;
18711;SDS011;9485;49.386;8.674;2022-12-16T06:37:38;15.60;;;9.47;;
18711;SDS011;9485;49.386;8.674;2022-12-16T06:43:18;17.70;;;9.13;;
18711;SDS011;9485;49.386;8.674;2022-12-16T06:48:56;18.27;;;11.37;;
18711;SDS011;9485;49.386;8.674;2022-12-16T06:54:35;18.47;;;10.37;;
18711;SDS011;9485;49.386;8.674;2022-12-16T07:00:20;22.37;;;11.77;;
18711;SDS011;9485;49.386;8.674;2022-12-16T07:05:58;16.27;;;9.10;;
18711;SDS011;9485;49.386;8.674;2022-12-16T07:11:36;17.40;;;10.53;;
18711;SDS011;9485;49.386;8.674;2022-12-16T07:17:16;18.30;;;10.97;;
18711;SDS011;9485;49.386;8.674;2022-12-16T07:22:55;16.70;;;10.50;;
18711;SDS011;9485;49.386;8.674;2022-12-16T07:28:33;15.23;;;8.67;;
18711;SDS011;9485;49.386;8.674;2022-12-16T07:34:14;14.93;;;9.13;;
18711;SDS011;9485;49.386;8.674;2022-12-16T07:39:52;15.93;;;9.53;;
18711;SDS011;9485;49.386;8.674;2022-12-16T07:45:31;12.73;;;8.77;;
18711;SDS011;9485;49.386;8.674;2022-12-16T07:51:10;16.20;;;8.43;;
18711;SDS011;9485;49.386;8.674;2022-12-16T07:56:49;16.63;;;9.47;;
18711;SDS011;9485;49.386;8.674;2022-12-16T08:02:27;16.17;;;8.70;;
18711;SDS011;9485;49.386;8.674;2022-12-16T08:08:08;15.57;;;8.93;;
18711;SDS011;9485;49.386;8.674;2022-12-16T08:13:46;16.17;;;8.63;;
18711;SDS011;9485;49.386;8.674;2022-12-16T08:19:25;17.60;;;10.13;;
18711;SDS011;9485;49.386;8.674;2022-12-16T08:25:18;14.13;;;8.93;;
18711;SDS011;9485;49.386;8.674;2022-12-16T08:30:57;20.50;;;11.00;;
18711;SDS011;9485;49.386;8.674;2022-12-16T08:36:35;17.93;;;10.53;;
18711;SDS011;9485;49.386;8.674;2022-12-16T08:42:15;19.83;;;11.30;;
18711;SDS011;9485;49.386;8.674;2022-12-16T08:47:53;17.97;;;9.93;;
18711;SDS011;9485;49.386;8.674;2022-12-16T08:53:32;19.83;;;11.23;;
18711;SDS011;9485;49.386;8.674;2022-12-16T08:59:11;16.47;;;10.13;;
18711;SDS011;9485;49.386;8.674;2022-12-16T09:04:50;17.20;;;9.57;;
18711;SDS011;9485;49.386;8.674;2022-12-16T09:10:29;17.00;;;9.60;;
18711;SDS011;9485;49.386;8.674;2022-12-16T09:16:08;13.93;;;9.50;;
18711;SDS011;9485;49.386;8.674;2022-12-16T09:21:43;16.90;;;11.13;;
18711;SDS011;9485;49.386;8.674;2022-12-16T09:27:21;16.77;;;9.70;;
18711;SDS011;9485;49.386;8.674;2022-12-16T09:33:06;17.50;;;10.27;;
18711;SDS011;9485;49.386;8.674;2022-12-16T09:38:45;16.27;;;9.80;;
18711;SDS011;9485;49.386;8.674;2022-12-16T09:44:25;14.77;;;10.30;;
18711;SDS011;9485;49.386;8.674;2022-12-16T09:50:22;15.77;;;10.53;;
18711;SDS011;9485;49.386;8.674;2022-12-16T09:56:14;13.67;;;9.87;;
18711;SDS011;9485;49.386;8.674;2022-12-16T10:01:57;15.50;;;10.07;;
18711;SDS011;9485;49.386;8.674;2022-12-16T10:07:44;16.00;;;10.07;;
18711;SDS011;9485;49.386;8.674;2022-12-16T10:13:34;18.23;;;10.43;;
18711;SDS011;9485;49.386;8.674;2022-12-16T10:19:23;14.50;;;9.67;;
18711;SDS011;9485;49.386;8.674;2022-12-16T10:25:16;15.40;;;10.50;;
18711;SDS011;9485;49.386;8.674;2022-12-16T10:31:01;16.67;;;9.77;;
18711;SDS011;9485;49.386;8.674;2022-12-16T10:36:49;14.67;;;9.67;;
18711;SDS011;9485;49.386;8.674;2022-12-16T10:42:31;19.63;;;11.40;;
18711;SDS011;9485;49.386;8.674;2022-12-16T10:48:18;15.50;;;10.50;;
18711;SDS011;9485;49.386;8.674;2022-12-16T10:54:10;18.40;;;10.97;;
18711;SDS011;9485;49.386;8.674;2022-12-16T11:02:16;13.67;;;9.97;;
18711;SDS011;9485;49.386;8.674;2022-12-16T11:07:58;14.97;;;9.90;;
18711;SDS011;9485;49.386;8.674;2022-12-16T11:13:36;16.20;;;10.47;;
18711;SDS011;9485;49.386;8.674;2022-12-16T11:19:19;20.33;;;11.50;;
18711;SDS011;9485;49.386;8.674;2022-12-16T11:25:03;18.10;;;10.23;;
18711;SDS011;9485;49.386;8.674;2022-12-16T11:30:50;14.37;;;9.70;;
18711;SDS011;9485;49.386;8.674;2022-12-16T11:36:33;15.20;;;9.37;;
18711;SDS011;9485;49.386;8.674;2022-12-16T11:42:15;16.03;;;10.50;;
18711;SDS011;9485;49.386;8.674;2022-12-16T11:48:00;13.80;;;9.50;;
18711;SDS011;9485;49.386;8.674;2022-12-16T11:53:51;15.27;;;10.20;;
18711;SDS011;9485;49.386;8.674;2022-12-16T11:59:41;13.07;;;8.73;;
18711;SDS011;9485;49.386;8.674;2022-12-16T12:05:28;11.20;;;8.70;;
18711;SDS011;9485;49.386;8.674;2022-12-16T12:11:15;13.80;;;9.17;;
18711;SDS011;9485;49.386;8.674;2022-12-16T12:17:05;14.73;;;10.03;;
18711;SDS011;9485;49.386;8.674;2022-12-16T12:22:57;17.30;;;10.57;;
18711;SDS011;9485;49.386;8.674;2022-12-16T12:29:01;12.37;;;10.00;;
18711;SDS011;9485;49.386;8.674;2022-12-16T12:34:54;12.53;;;9.03;;
18711;SDS011;9485;49.386;8.674;2022-12-16T12:40:56;13.43;;;9.47;;
18711;SDS011;9485;49.386;8.674;2022-12-16T12:46:49;14.73;;;9.67;;
18711;SDS011;9485;49.386;8.674;2022-12-16T12:52:47;12.37;;;8.87;;
18711;SDS011;9485;49.386;8.674;2022-12-16T12:58:49;14.60;;;9.17;;
18711;SDS011;9485;49.386;8.674;2022-12-16T13:04:34;13.07;;;9.30;;
18711;SDS011;9485;49.386;8.674;2022-12-16T13:10:29;12.63;;;9.23;;
18711;SDS011;9485;49.386;8.674;2022-12-16T13:22:37;13.60;;;9.90;;
18711;SDS011;9485;49.386;8.674;2022-12-16T13:28:20;15.00;;;9.90;;
18711;SDS011;9485;49.386;8.674;2022-12-16T13:34:03;12.37;;;8.87;;
18711;SDS011;9485;49.386;8.674;2022-12-16T13:40:01;13.73;;;9.30;;
18711;SDS011;9485;49.386;8.674;2022-12-16T13:45:43;11.53;;;8.90;;
18711;SDS011;9485;49.386;8.674;2022-12-16T13:57:43;13.23;;;9.40;;
18711;SDS011;9485;49.386;8.674;2022-12-16T14:03:26;14.07;;;9.60;;
18711;SDS011;9485;49.386;8.674;2022-12-16T14:09:23;11.40;;;9.47;;
18711;SDS011;9485;49.386;8.674;2022-12-16T14:15:13;11.33;;;8.13;;
18711;SDS011;9485;49.386;8.674;2022-12-16T14:21:02;12.70;;;9.27;;
18711;SDS011;9485;49.386;8.674;2022-12-16T14:26:56;13.00;;;8.63;;
18711;SDS011;9485;49.386;8.674;2022-12-16T14:32:37;10.27;;;8.10;;
18711;SDS011;9485;49.386;8.674;2022-12-16T14:38:23;10.97;;;7.87;;
18711;SDS011;9485;49.386;8.674;2022-12-16T14:44:12;12.93;;;8.13;;
18711;SDS011;9485;49.386;8.674;2022-12-16T14:49:55;12.00;;;8.20;;
18711;SDS011;9485;49.386;8.674;2022-12-16T14:55:34;11.23;;;7.93;;
18711;SDS011;9485;49.386;8.674;2022-12-16T15:01:13;11.13;;;7.20;;
18711;SDS011;9485;49.386;8.674;2022-12-16T15:06:57;10.70;;;7.43;;
18711;SDS011;9485;49.386;8.674;2022-12-16T15:12:47;10.47;;;7.70;;
18711;SDS011;9485;49.386;8.674;2022-12-16T15:19:43;11.60;;;7.83;;
18711;SDS011;9485;49.386;8.674;2022-12-16T15:25:28;10.00;;;7.63;;
18711;SDS011;9485;49.386;8.674;2022-12-16T15:31:14;13.00;;;8.03;;
18711;SDS011;9485;49.386;8.674;2022-12-16T15:37:01;12.37;;;7.90;;
18711;SDS011;9485;49.386;8.674;2022-12-16T15:42:40;13.23;;;8.70;;
18711;SDS011;9485;49.386;8.674;2022-12-16T15:48:19;13.57;;;8.00;;
18711;SDS011;9485;49.386;8.674;2022-12-16T15:54:04;13.73;;;8.30;;
18711;SDS011;9485;49.386;8.674;2022-12-16T15:59:51;14.03;;;8.90;;
18711;SDS011;9485;49.386;8.674;2022-12-16T16:05:36;12.13;;;8.30;;
18711;SDS011;9485;49.386;8.674;2022-12-16T16:11:16;11.10;;;8.20;;
18711;SDS011;9485;49.386;8.674;2022-12-16T16:16:54;13.23;;;8.23;;
18711;SDS011;9485;49.386;8.674;2022-12-16T16:22:32;11.93;;;8.70;;
18711;SDS011;9485;49.386;8.674;2022-12-16T16:28:20;15.43;;;9.17;;
18711;SDS011;9485;49.386;8.674;2022-12-16T16:33:59;15.20;;;9.37;;
18711;SDS011;9485;49.386;8.674;2022-12-16T16:39:37;14.77;;;8.53;;
18711;SDS011;9485;49.386;8.674;2022-12-16T16:45:17;14.77;;;10.00;;
18711;SDS011;9485;49.386;8.674;2022-12-16T16:50:56;15.67;;;9.73;;
18711;SDS011;9485;49.386;8.674;2022-12-16T16:56:41;15.23;;;10.03;;
18711;SDS011;9485;49.386;8.674;2022-12-16T17:02:22;14.00;;;9.33;;
18711;SDS011;9485;49.386;8.674;2022-12-16T17:08:01;12.50;;;8.33;;
18711;SDS011;9485;49.386;8.674;2022-12-16T17:13:40;13.13;;;9.17;;
18711;SDS011;9485;49.386;8.674;2022-12-16T17:19:19;12.27;;;8.20;;
18711;SDS011;9485;49.386;8.674;2022-12-16T17:24:58;12.37;;;8.83;;
18711;SDS011;9485;49.386;8.674;2022-12-16T17:30:36;11.63;;;7.73;;
18711;SDS011;9485;49.386;8.674;2022-12-16T17:36:16;11.03;;;7.40;;
18711;SDS011;9485;49.386;8.674;2022-12-16T17:41:56;12.23;;;7.70;;
18711;SDS011;9485;49.386;8.674;2022-12-16T17:47:34;14.97;;;8.83;;
18711;SDS011;9485;49.386;8.674;2022-12-16T17:53:17;16.57;;;8.90;;
18711;SDS011;9485;49.386;8.674;2022-12-16T17:58:55;13.10;;;9.40;;
18711;SDS011;9485;49.386;8.674;2022-12-16T18:04:33;12.80;;;8.80;;
18711;SDS011;9485;49.386;8.674;2022-12-16T18:10:13;14.87;;;8.53;;
18711;SDS011;9485;49.386;8.674;2022-12-16T18:15:52;12.63;;;8.50;;
18711;SDS011;9485;49.386;8.674;2022-12-16T18:21:30;15.40;;;9.00;;
18711;SDS011;9485;49.386;8.674;2022-12-16T18:27:10;14.63;;;9.47;;
18711;SDS011;9485;49.386;8.674;2022-12-16T18:32:48;14.40;;;9.47;;
18711;SDS011;9485;49.386;8.674;2022-12-16T18:38:27;13.37;;;9.27;;
18711;SDS011;9485;49.386;8.674;2022-12-16T18:44:09;14.77;;;10.63;;
18711;SDS011;9485;49.386;8.674;2022-12-16T18:49:50;14.70;;;10.47;;
18711;SDS011;9485;49.386;8.674;2022-12-16T18:55:28;15.00;;;10.13;;
18711;SDS011;9485;49.386;8.674;2022-12-16T19:01:09;15.93;;;9.57;;
18711;SDS011;9485;49.386;8.674;2022-12-16T19:06:50;12.50;;;8.50;;
18711;SDS011;9485;49.386;8.674;2022-12-16T19:12:28;14.00;;;8.03;;
18711;SDS011;9485;49.386;8.674;2022-12-16T19:18:09;19.27;;;12.23;;
18711;SDS011;9485;49.386;8.674;2022-12-16T19:24:03;20.20;;;12.73;;
18711;SDS011;9485;49.386;8.674;2022-12-16T19:29:42;15.90;;;11.17;;
18711;SDS011;9485;49.386;8.674;2022-12-16T19:35:22;20.97;;;11.50;;
18711;SDS011;9485;49.386;8.674;2022-12-16T19:41:01;16.47;;;10.97;;
18711;SDS011;9485;49.386;8.674;2022-12-16T19:46:39;18.07;;;11.30;;
18711;SDS011;9485;49.386;8.674;2022-12-16T19:52:19;19.90;;;11.33;;
18711;SDS011;9485;49.386;8.674;2022-12-16T19:58:16;20.80;;;12.30;;
18711;SDS011;9485;49.386;8.674;2022-12-16T20:03:56;21.27;;;11.57;;
18711;SDS011;9485;49.386;8.674;2022-12-16T20:09:35;22.83;;;12.97;;
18711;SDS011;9485;49.386;8.674;2022-12-16T20:15:14;22.57;;;12.77;;
18711;SDS011;9485;49.386;8.674;2022-12-16T20:20:53;16.23;;;11.23;;
18711;SDS011;9485;49.386;8.674;2022-12-16T20:26:32;14.83;;;10.93;;
18711;SDS011;9485;49.386;8.674;2022-12-16T20:32:11;23.27;;;14.73;;
18711;SDS011;9485;49.386;8.674;2022-12-16T20:37:51;32.80;;;20.23;;
18711;SDS011;9485;49.386;8.674;2022-12-16T20:43:31;46.03;;;29.90;;
18711;SDS011;9485;49.386;8.674;2022-12-16T20:49:10;60.70;;;38.73;;
18711;SDS011;9485;49.386;8.674;2022-12-16T20:54:48;72.13;;;41.27;;
18711;SDS011;9485;49.386;8.674;2022-12-16T21:00:28;36.30;;;23.17;;
18711;SDS011;9485;49.386;8.674;2022-12-16T21:06:06;32.17;;;20.00;;
18711;SDS011;9485;49.386;8.674;2022-12-16T21:11:45;25.20;;;15.93;;
18711;SDS011;9485;49.386;8.674;2022-12-16T21:17:25;21.23;;;13.80;;
18711;SDS011;9485;49.386;8.674;2022-12-16T21:23:03;17.60;;;12.53;;
18711;SDS011;9485;49.386;8.674;2022-12-16T21:28:43;21.43;;;13.63;;
18711;SDS011;9485;49.386;8.674;2022-12-16T21:34:24;20.30;;;14.70;;
18711;SDS011;9485;49.386;8.674;2022-12-16T21:40:03;19.87;;;13.57;;
18711;SDS011;9485;49.386;8.674;2022-12-16T21:45:50;18.20;;;12.30;;
18711;SDS011;9485;49.386;8.674;2022-12-16T21:51:30;22.63;;;14.10;;
18711;SDS011;9485;49.386;8.674;2022-12-16T21:57:08;17.90;;;12.30;;
18711;SDS011;9485;49.386;8.674;2022-12-16T22:02:47;21.97;;;12.17;;
18711;SDS011;9485;49.386;8.674;2022-12-16T22:08:27;20.83;;;13.30;;
18711;SDS011;9485;49.386;8.674;2022-12-16T22:14:04;20.20;;;11.70;;
18711;SDS011;9485;49.386;8.674;2022-12-16T22:19:42;16.63;;;11.37;;
18711;SDS011;9485;49.386;8.674;2022-12-16T22:25:22;22.20;;;12.37;;
18711;SDS011;9485;49.386;8.674;2022-12-16T22:31:01;16.23;;;11.73;;
18711;SDS011;9485;49.386;8.674;2022-12-16T22:36:40;20.27;;;12.07;;
18711;SDS011;9485;49.386;8.674;2022-12-16T22:42:19;17.43;;;11.10;;
18711;SDS011;9485;49.386;8.674;2022-12-16T22:47:58;16.43;;;11.13;;
18711;SDS011;9485;49.386;8.674;2022-12-16T22:53:36;18.93;;;11.77;;
18711;SDS011;9485;49.386;8.674;2022-12-16T22:59:16;17.00;;;10.53;;
18711;SDS011;9485;49.386;8.674;2022-12-16T23:04:54;15.93;;;10.33;;
18711;SDS011;9485;49.386;8.674;2022-12-16T23:10:33;16.00;;;10.17;;
18711;SDS011;9485;49.386;8.674;2022-12-16T23:16:13;17.70;;;10.20;;
18711;SDS011;9485;49.386;8.674;2022-12-16T23:21:51;17.03;;;10.53;;
18711;SDS011;9485;49.386;8.674;2022-12-16T23:27:29;18.13;;;11.83;;
18711;SDS011;9485;49.386;8.674;2022-12-16T23:33:09;21.40;;;13.03;;
18711;SDS011;9485;49.386;8.674;2022-12-16T23:38:48;28.47;;;15.77;;
18711;SDS011;9485;49.386;8.674;2022-12-16T23:44:26;28.73;;;14.63;;
18711;SDS011;9485;49.386;8.674;2022-12-16T23:50:06;23.63;;;14.00;;
18711;SDS011;9485;49.386;8.674;2022-12-16T23:55:45;20.70;;;12.17;;
